createdAt,value
2022-09-12T00:01:23.326Z,14.41
2022-09-12T00:03:55.061Z,14.35
2022-09-12T00:06:24.724Z,14.31
2022-09-12T00:08:53.916Z,14.28
2022-09-12T00:11:20.417Z,14.25
2022-09-12T00:13:47.147Z,14.26
2022-09-12T00:16:22.425Z,14.22
2022-09-12T00:18:49.157Z,14.19
2022-09-12T00:21:17.764Z,14.17
2022-09-12T00:23:45.499Z,14.16
2022-09-12T00:26:12.460Z,14.13
2022-09-12T00:28:40.135Z,14.13
2022-09-12T00:31:09.390Z,14.10
2022-09-12T00:33:36.005Z,14.09
2022-09-12T00:36:15.413Z,14.06
2022-09-12T00:38:43.714Z,14.02
2022-09-12T00:41:15.672Z,13.98
2022-09-12T00:43:44.744Z,13.95
2022-09-12T00:46:17.112Z,13.91
2022-09-12T00:48:52.132Z,13.86
2022-09-12T00:51:19.937Z,13.86
2022-09-12T00:53:48.702Z,13.88
2022-09-12T00:56:17.718Z,13.88
2022-09-12T00:58:51.097Z,13.92
2022-09-12T01:01:17.991Z,13.94
2022-09-12T01:03:44.803Z,13.96
2022-09-12T01:06:17.571Z,13.96
2022-09-12T01:08:46.797Z,13.97
2022-09-12T01:11:15.875Z,13.95
2022-09-12T01:13:44.052Z,13.88
2022-09-12T01:16:10.814Z,13.78
2022-09-12T01:19:01.275Z,13.72
2022-09-12T01:21:43.756Z,13.69
2022-09-12T01:24:19.415Z,13.68
2022-09-12T01:27:14.796Z,13.68
2022-09-12T01:30:05.878Z,13.68
2022-09-12T01:32:46.929Z,13.61
2022-09-12T01:35:28.743Z,13.58
2022-09-12T01:38:06.263Z,13.59
2022-09-12T01:40:38.546Z,13.57
2022-09-12T01:43:31.830Z,13.54
2022-09-12T01:46:13.768Z,13.51
2022-09-12T01:48:47.945Z,13.48
2022-09-12T01:51:27.772Z,13.47
2022-09-12T01:54:06.947Z,13.48
2022-09-12T01:56:38.098Z,13.40
2022-09-12T01:59:10.661Z,13.33
2022-09-12T02:01:46.753Z,13.29
2022-09-12T02:04:18.990Z,13.30
2022-09-12T02:06:52.227Z,13.30
2022-09-12T02:09:26.323Z,13.32
2022-09-12T02:11:58.516Z,13.33
2022-09-12T02:14:29.634Z,13.30
2022-09-12T02:17:01.367Z,13.25
2022-09-12T02:19:37.317Z,13.20
2022-09-12T02:22:05.736Z,13.13
2022-09-12T02:24:39.334Z,13.10
2022-09-12T02:27:16.623Z,13.09
2022-09-12T02:29:44.903Z,13.06
2022-09-12T02:32:15.485Z,13.03
2022-09-12T02:34:59.909Z,13.02
2022-09-12T02:37:38.760Z,12.97
2022-09-12T02:40:07.089Z,12.93
2022-09-12T02:42:33.606Z,12.91
2022-09-12T02:45:00.158Z,12.85
2022-09-12T02:47:32.354Z,12.84
2022-09-12T02:49:59.632Z,12.83
2022-09-12T02:52:28.657Z,12.83
2022-09-12T02:54:57.213Z,12.83
2022-09-12T02:57:24.315Z,12.82
2022-09-12T02:59:58.985Z,12.78
2022-09-12T03:02:53.713Z,12.76
2022-09-12T03:05:29.285Z,12.73
2022-09-12T03:08:22.540Z,12.72
2022-09-12T03:11:06.094Z,12.71
2022-09-12T03:13:32.492Z,12.72
2022-09-12T03:15:58.874Z,12.71
2022-09-12T03:18:46.288Z,12.70
2022-09-12T03:21:42.316Z,12.67
2022-09-12T03:24:25.026Z,12.64
2022-09-12T03:26:54.859Z,12.62
2022-09-12T03:29:23.695Z,12.64
2022-09-12T03:31:58.228Z,12.65
2022-09-12T03:34:26.919Z,12.67
2022-09-12T03:36:57.271Z,12.66
2022-09-12T03:39:26.378Z,12.60
2022-09-12T03:41:54.082Z,12.53
2022-09-12T03:44:20.748Z,12.46
2022-09-12T03:46:47.245Z,12.46
2022-09-12T03:49:13.915Z,12.45
2022-09-12T03:51:40.752Z,12.43
2022-09-12T03:54:07.289Z,12.40
2022-09-12T03:56:34.475Z,12.36
2022-09-12T03:59:01.339Z,12.37
2022-09-12T04:01:27.955Z,12.40
2022-09-12T04:03:54.468Z,12.40
2022-09-12T04:06:22.992Z,12.44
2022-09-12T04:08:52.331Z,12.47
2022-09-12T04:11:20.645Z,12.49
2022-09-12T04:13:47.385Z,12.50
2022-09-12T04:16:15.793Z,12.49
2022-09-12T04:18:43.833Z,12.47
2022-09-12T04:21:21.865Z,12.39
2022-09-12T04:23:48.915Z,12.34
2022-09-12T04:26:17.428Z,12.29
2022-09-12T04:28:46.262Z,12.25
2022-09-12T04:31:17.816Z,12.24
2022-09-12T04:33:45.337Z,12.23
2022-09-12T04:36:17.426Z,12.19
2022-09-12T04:38:46.307Z,12.18
2022-09-12T04:41:15.522Z,12.14
2022-09-12T04:43:43.181Z,12.13
2022-09-12T04:46:11.536Z,12.13
2022-09-12T04:48:38.826Z,12.13
2022-09-12T04:51:23.433Z,12.14
2022-09-12T04:53:52.686Z,12.12
2022-09-12T04:56:20.067Z,12.12
2022-09-12T04:58:46.873Z,12.14
2022-09-12T05:01:19.224Z,12.14
2022-09-12T05:03:47.103Z,12.14
2022-09-12T05:06:22.244Z,12.11
2022-09-12T05:08:48.886Z,12.07
2022-09-12T05:11:24.102Z,12.05
2022-09-12T05:13:51.927Z,12.02
2022-09-12T05:16:19.642Z,11.99
2022-09-12T05:18:47.245Z,11.98
2022-09-12T05:21:16.964Z,12.01
2022-09-12T05:23:43.935Z,12.08
2022-09-12T05:26:14.748Z,12.12
2022-09-12T05:28:41.931Z,12.15
2022-09-12T05:31:12.901Z,12.18
2022-09-12T05:33:41.500Z,12.21
2022-09-12T05:36:11.637Z,12.23
2022-09-12T05:38:38.122Z,12.26
2022-09-12T05:41:07.712Z,12.30
2022-09-12T05:43:34.898Z,12.35
2022-09-12T05:46:10.359Z,12.38
2022-09-12T05:48:38.064Z,12.43
2022-09-12T05:51:07.604Z,12.52
2022-09-12T05:53:35.159Z,12.60
2022-09-12T05:56:06.815Z,12.69
2022-09-12T05:58:34.695Z,12.73
2022-09-12T06:01:03.533Z,12.80
2022-09-12T06:03:30.248Z,12.87
2022-09-12T06:05:57.033Z,12.97
2022-09-12T06:08:23.621Z,13.05
2022-09-12T06:10:50.144Z,13.13
2022-09-12T06:13:16.626Z,13.23
2022-09-12T06:15:43.162Z,13.33
2022-09-12T06:18:09.661Z,13.40
2022-09-12T06:20:36.962Z,13.46
2022-09-12T06:23:03.467Z,13.56
2022-09-12T06:25:30.009Z,13.65
2022-09-12T06:27:56.829Z,13.75
2022-09-12T06:30:25.442Z,13.86
2022-09-12T06:32:52.233Z,13.99
2022-09-12T06:35:18.999Z,14.11
2022-09-12T06:37:45.683Z,14.22
2022-09-12T06:40:12.494Z,14.34
2022-09-12T06:42:39.120Z,14.44
2022-09-12T06:45:06.290Z,14.54
2022-09-12T06:47:32.986Z,14.62
2022-09-12T06:49:59.523Z,14.69
2022-09-12T06:52:26.462Z,14.75
2022-09-12T06:54:52.986Z,14.83
2022-09-12T06:57:19.552Z,14.90
2022-09-12T06:59:46.156Z,14.95
2022-09-12T07:02:12.746Z,15.01
2022-09-12T07:04:39.332Z,15.10
2022-09-12T07:07:05.956Z,15.19
2022-09-12T07:09:32.610Z,15.29
2022-09-12T07:11:59.352Z,15.40
2022-09-12T07:14:26.131Z,15.51
2022-09-12T07:16:52.982Z,15.65
2022-09-12T07:19:19.605Z,15.77
2022-09-12T07:21:46.320Z,15.90
2022-09-12T07:24:12.994Z,16.00
2022-09-12T07:26:40.562Z,16.11
2022-09-12T07:29:34.891Z,16.25
2022-09-12T07:31:55.703Z,16.40
2022-09-12T07:34:22.714Z,16.53
2022-09-12T07:36:49.529Z,16.64
2022-09-12T07:39:16.233Z,16.75
2022-09-12T07:41:42.996Z,16.85
2022-09-12T07:44:09.659Z,16.93
2022-09-12T07:46:36.428Z,17.00
2022-09-12T07:49:03.315Z,17.10
2022-09-12T07:51:30.912Z,17.19
2022-09-12T07:53:58.119Z,17.27
2022-09-12T07:56:30.176Z,17.38
2022-09-12T07:58:58.993Z,17.48
2022-09-12T08:01:26.214Z,17.56
2022-09-12T08:03:58.049Z,17.64
2022-09-12T08:06:26.895Z,17.73
2022-09-12T08:08:55.479Z,17.80
2022-09-12T08:11:23.632Z,17.90
2022-09-12T08:13:55.296Z,18.02
2022-09-12T08:16:27.583Z,18.15
2022-09-12T08:18:54.598Z,18.27
2022-09-12T08:21:23.797Z,18.39
2022-09-12T08:23:55.567Z,18.52
2022-09-12T08:26:23.417Z,18.64
2022-09-12T08:28:50.200Z,18.72
2022-09-12T08:31:20.195Z,18.79
2022-09-12T08:33:47.064Z,18.85
2022-09-12T08:36:22.655Z,18.97
2022-09-12T08:38:51.459Z,19.12
2022-09-12T08:41:17.873Z,19.22
2022-09-12T08:44:09.528Z,19.34
2022-09-12T08:47:07.848Z,19.47
2022-09-12T08:49:53.025Z,19.63
2022-09-12T08:52:26.974Z,19.76
2022-09-12T08:54:56.289Z,19.87
2022-09-12T08:57:24.226Z,20.00
2022-09-12T08:59:51.445Z,20.14
2022-09-12T09:02:21.019Z,20.31
2022-09-12T09:04:52.640Z,20.44
2022-09-12T09:07:47.388Z,20.57
2022-09-12T09:10:38.071Z,20.74
2022-09-12T09:13:51.444Z,20.94
2022-09-12T09:16:46.367Z,21.17
2022-09-12T09:19:18.915Z,21.30
2022-09-12T09:21:54.537Z,21.33
2022-09-12T09:24:27.077Z,21.37
2022-09-12T09:27:01.974Z,21.42
2022-09-12T09:29:36.760Z,21.50
2022-09-12T09:32:10.153Z,21.61
2022-09-12T09:34:39.064Z,21.69
2022-09-12T09:37:14.396Z,21.81
2022-09-12T09:39:53.366Z,21.93
2022-09-12T09:42:25.774Z,22.04
2022-09-12T09:44:54.883Z,22.18
2022-09-12T09:47:21.679Z,22.28
2022-09-12T09:49:48.316Z,22.42
2022-09-12T09:52:17.911Z,22.48
2022-09-12T09:54:53.197Z,22.53
2022-09-12T09:57:40.127Z,22.53
2022-09-12T10:00:22.025Z,22.53
2022-09-12T10:03:26.881Z,22.53
2022-09-12T10:05:57.063Z,22.52
2022-09-12T10:08:28.718Z,22.53
2022-09-12T10:11:16.449Z,22.57
2022-09-12T10:13:54.573Z,22.69
2022-09-12T10:16:29.046Z,22.74
2022-09-12T10:18:58.151Z,22.68
2022-09-12T10:21:41.383Z,22.72
2022-09-12T10:24:26.353Z,22.82
2022-09-12T10:26:57.157Z,22.93
2022-09-12T10:29:32.079Z,23.03
2022-09-12T10:32:03.253Z,23.05
2022-09-12T10:34:35.906Z,23.21
2022-09-12T10:37:07.892Z,23.33
2022-09-12T10:39:36.274Z,23.43
2022-09-12T10:42:05.491Z,23.53
2022-09-12T10:44:34.710Z,23.66
2022-09-12T10:47:21.048Z,23.70
2022-09-12T10:49:47.681Z,23.73
2022-09-12T10:52:25.119Z,23.67
2022-09-12T10:54:52.155Z,23.81
2022-09-12T10:57:25.037Z,23.92
2022-09-12T11:00:13.688Z,23.97
2022-09-12T11:02:50.990Z,23.96
2022-09-12T11:05:36.569Z,24.00
2022-09-12T11:08:43.731Z,24.02
2022-09-12T11:11:18.548Z,24.03
2022-09-12T11:13:58.197Z,23.98
2022-09-12T11:16:43.075Z,23.92
2022-09-12T11:19:32.009Z,23.93
2022-09-12T11:22:26.787Z,24.07
2022-09-12T11:25:17.759Z,24.18
2022-09-12T11:28:17.808Z,24.37
2022-09-12T11:31:03.207Z,24.47
2022-09-12T11:33:50.577Z,24.49
2022-09-12T11:36:48.202Z,24.56
2022-09-12T11:39:17.243Z,24.70
2022-09-12T11:41:57.003Z,24.78
2022-09-12T11:44:40.147Z,24.93
2022-09-12T11:47:13.469Z,25.10
2022-09-12T11:49:49.685Z,25.22
2022-09-12T11:52:21.973Z,25.27
2022-09-12T11:55:03.912Z,25.29
2022-09-12T11:57:54.185Z,25.39
2022-09-12T12:00:32.233Z,25.47
2022-09-12T12:03:08.891Z,25.58
2022-09-12T12:06:26.438Z,25.64
2022-09-12T12:08:53.200Z,25.70
2022-09-12T12:11:36.963Z,25.78
2022-09-12T12:14:18.740Z,25.88
2022-09-12T12:16:46.095Z,25.98
2022-09-12T12:19:15.670Z,26.11
2022-09-12T12:21:47.018Z,26.20
2022-09-12T12:24:15.637Z,26.20
2022-09-12T12:27:00.283Z,26.11
2022-09-12T12:29:41.572Z,26.10
2022-09-12T12:32:09.934Z,26.24
2022-09-12T12:34:47.007Z,26.36
2022-09-12T12:37:19.549Z,26.51
2022-09-12T12:39:53.838Z,26.54
2022-09-12T12:42:35.475Z,26.57
2022-09-12T12:45:31.291Z,26.61
2022-09-12T12:48:14.413Z,26.59
2022-09-12T12:50:40.944Z,26.59
2022-09-12T12:53:24.895Z,26.67
2022-09-12T12:55:54.596Z,26.73
2022-09-12T12:58:27.125Z,26.74
2022-09-12T13:01:17.079Z,26.81
2022-09-12T13:03:54.497Z,26.81
2022-09-12T13:06:37.433Z,26.81
2022-09-12T13:09:30.395Z,26.82
2022-09-12T13:12:05.143Z,26.82
2022-09-12T13:14:47.018Z,26.87
2022-09-12T13:17:26.115Z,26.99
2022-09-12T13:20:26.112Z,27.02
2022-09-12T13:22:51.782Z,27.02
2022-09-12T13:25:32.471Z,27.11
2022-09-12T13:28:04.143Z,27.24
2022-09-12T13:30:36.610Z,27.35
2022-09-12T13:33:16.552Z,27.44
2022-09-12T13:35:57.547Z,27.47
2022-09-12T13:38:48.976Z,27.38
2022-09-12T13:41:37.205Z,27.36
2022-09-12T13:44:08.479Z,27.42
2022-09-12T13:46:35.431Z,27.47
2022-09-12T13:49:11.378Z,27.46
2022-09-12T13:51:38.291Z,27.33
2022-09-12T13:54:05.823Z,27.23
2022-09-12T13:56:32.697Z,27.19
2022-09-12T13:59:02.431Z,27.24
2022-09-12T14:01:46.825Z,27.40
2022-09-12T14:04:38.674Z,27.49
2022-09-12T14:07:17.472Z,27.46
2022-09-12T14:09:47.186Z,27.44
2022-09-12T14:12:22.117Z,27.47
2022-09-12T14:14:51.025Z,27.52
2022-09-12T14:17:23.533Z,27.48
2022-09-12T14:19:52.330Z,27.44
2022-09-12T14:22:19.126Z,27.46
2022-09-12T14:24:50.569Z,27.48
2022-09-12T14:27:26.735Z,27.50
2022-09-12T14:30:01.833Z,27.52
2022-09-12T14:32:28.403Z,27.60
2022-09-12T14:35:19.043Z,27.66
2022-09-12T14:37:51.008Z,27.74
2022-09-12T14:40:23.554Z,27.74
2022-09-12T14:42:52.711Z,27.65
2022-09-12T14:45:28.798Z,27.70
2022-09-12T14:47:56.027Z,27.78
2022-09-12T14:50:29.644Z,27.71
2022-09-12T14:53:21.040Z,27.68
2022-09-12T14:55:59.093Z,27.71
2022-09-12T14:58:28.211Z,27.65
2022-09-12T15:00:55.974Z,27.62
2022-09-12T15:03:49.436Z,27.60
2022-09-12T15:06:28.243Z,27.60
2022-09-12T15:08:56.952Z,27.61
2022-09-12T15:11:23.789Z,27.57
2022-09-12T15:13:50.736Z,27.52
2022-09-12T15:16:17.658Z,27.47
2022-09-12T15:18:44.330Z,27.46
2022-09-12T15:21:15.874Z,27.40
2022-09-12T15:23:53.815Z,27.34
2022-09-12T15:26:27.403Z,27.36
2022-09-12T15:28:54.007Z,27.46
2022-09-12T15:31:25.235Z,27.54
2022-09-12T15:33:52.142Z,27.60
2022-09-12T15:36:21.388Z,27.63
2022-09-12T15:38:49.077Z,27.70
2022-09-12T15:41:25.174Z,27.72
2022-09-12T15:43:51.676Z,27.73
2022-09-12T15:46:19.360Z,27.74
2022-09-12T15:48:46.203Z,27.77
2022-09-12T15:51:18.668Z,27.81
2022-09-12T15:53:46.102Z,27.83
2022-09-12T15:56:16.676Z,27.85
2022-09-12T15:58:57.646Z,27.92
2022-09-12T16:01:26.558Z,27.88
2022-09-12T16:03:53.274Z,27.86
2022-09-12T16:06:19.842Z,27.85
2022-09-12T16:08:46.646Z,27.89
2022-09-12T16:11:24.657Z,27.96
2022-09-12T16:13:55.411Z,28.00
2022-09-12T16:16:22.045Z,28.01
2022-09-12T16:18:48.824Z,28.03
2022-09-12T16:21:15.950Z,28.06
2022-09-12T16:23:43.894Z,28.02
2022-09-12T16:26:10.546Z,27.99
2022-09-12T16:28:37.321Z,27.99
2022-09-12T16:31:06.317Z,27.99
2022-09-12T16:33:33.674Z,27.98
2022-09-12T16:36:06.113Z,27.96
2022-09-12T16:38:33.798Z,27.92
2022-09-12T16:41:05.751Z,27.91
2022-09-12T16:43:33.795Z,27.89
2022-09-12T16:46:11.881Z,27.87
2022-09-12T16:48:48.051Z,27.81
2022-09-12T16:51:23.880Z,27.73
2022-09-12T16:53:50.981Z,27.64
2022-09-12T16:56:17.555Z,27.56
2022-09-12T16:58:44.978Z,27.50
2022-09-12T17:01:14.904Z,27.48
2022-09-12T17:03:41.858Z,27.45
2022-09-12T17:06:14.003Z,27.44
2022-09-12T17:08:43.623Z,27.41
2022-09-12T17:11:12.512Z,27.33
2022-09-12T17:14:02.646Z,27.21
2022-09-12T17:16:27.902Z,27.06
2022-09-12T17:18:55.188Z,26.92
2022-09-12T17:21:22.256Z,26.73
2022-09-12T17:23:49.476Z,26.47
2022-09-12T17:26:16.319Z,26.21
2022-09-12T17:28:43.904Z,25.98
2022-09-12T17:31:13.760Z,25.77
2022-09-12T17:33:41.268Z,25.55
2022-09-12T17:36:11.111Z,25.36
2022-09-12T17:38:39.654Z,25.16
2022-09-12T17:41:15.998Z,24.96
2022-09-12T17:43:43.881Z,24.77
2022-09-12T17:46:10.488Z,24.61
2022-09-12T17:48:37.246Z,24.45
2022-09-12T17:51:14.238Z,24.31
2022-09-12T17:53:41.655Z,24.15
2022-09-12T17:56:09.934Z,24.01
2022-09-12T17:58:37.064Z,23.89
2022-09-12T18:01:28.987Z,23.76
2022-09-12T18:03:57.135Z,23.61
2022-09-12T18:06:24.579Z,23.49
2022-09-12T18:08:51.263Z,23.36
2022-09-12T18:11:17.825Z,23.16
2022-09-12T18:13:44.536Z,22.95
2022-09-12T18:16:12.825Z,22.75
2022-09-12T18:18:39.777Z,22.60
2022-09-12T18:21:08.369Z,22.49
2022-09-12T18:23:35.388Z,22.39
2022-09-12T18:26:04.868Z,22.28
2022-09-12T18:28:35.921Z,22.17
2022-09-12T18:31:02.966Z,22.08
2022-09-12T18:33:29.613Z,21.98
2022-09-12T18:35:56.251Z,21.87
2022-09-12T18:38:22.773Z,21.75
2022-09-12T18:40:49.266Z,21.62
2022-09-12T18:43:15.856Z,21.50
2022-09-12T18:45:42.365Z,21.40
2022-09-12T18:48:09.330Z,21.32
2022-09-12T18:50:35.808Z,21.23
2022-09-12T18:53:02.279Z,21.14
2022-09-12T18:55:31.790Z,21.02
2022-09-12T18:57:58.251Z,20.95
2022-09-12T19:00:24.744Z,20.88
2022-09-12T19:02:51.385Z,20.83
2022-09-12T19:05:18.202Z,20.77
2022-09-12T19:07:44.753Z,20.71
2022-09-12T19:10:11.940Z,20.66
2022-09-12T19:12:38.417Z,20.62
2022-09-12T19:15:05.196Z,20.57
2022-09-12T19:17:31.724Z,20.53
2022-09-12T19:19:58.328Z,20.48
2022-09-12T19:22:24.784Z,20.42
2022-09-12T19:24:51.297Z,20.35
2022-09-12T19:27:17.812Z,20.26
2022-09-12T19:29:44.413Z,20.19
2022-09-12T19:32:11.243Z,20.12
2022-09-12T19:34:37.697Z,20.06
2022-09-12T19:37:04.537Z,19.98
2022-09-12T19:39:31.478Z,19.94
2022-09-12T19:41:58.137Z,19.88
2022-09-12T19:44:27.025Z,19.84
2022-09-12T19:46:53.519Z,19.79
2022-09-12T19:49:19.958Z,19.72
2022-09-12T19:51:46.451Z,19.62
2022-09-12T19:54:13.051Z,19.55
2022-09-12T19:56:39.575Z,19.48
2022-09-12T19:59:06.062Z,19.40
2022-09-12T20:01:33.086Z,19.35
2022-09-12T20:03:59.617Z,19.23
2022-09-12T20:06:27.306Z,19.12
2022-09-12T20:08:54.698Z,19.04
2022-09-12T20:11:23.292Z,18.93
2022-09-12T20:13:50.090Z,18.85
2022-09-12T20:16:23.230Z,18.75
2022-09-12T20:18:58.281Z,18.71
2022-09-12T20:21:31.620Z,18.68
2022-09-12T20:24:10.231Z,18.64
2022-09-12T20:26:36.871Z,18.59
2022-09-12T20:29:05.292Z,18.53
2022-09-12T20:31:33.328Z,18.50
2022-09-12T20:33:59.978Z,18.42
2022-09-12T20:36:26.864Z,18.36
2022-09-12T20:38:59.838Z,18.29
2022-09-12T20:41:28.942Z,18.21
2022-09-12T20:43:56.940Z,18.16
2022-09-12T20:46:24.855Z,18.08
2022-09-12T20:48:51.790Z,18.05
2022-09-12T20:51:19.354Z,18.00
2022-09-12T20:53:46.171Z,17.92
2022-09-12T20:56:12.801Z,17.82
2022-09-12T20:58:43.527Z,17.75
2022-09-12T21:01:12.299Z,17.67
2022-09-12T21:03:40.316Z,17.59
2022-09-12T21:06:08.029Z,17.56
2022-09-12T21:08:36.043Z,17.57
2022-09-12T21:11:03.324Z,17.58
2022-09-12T21:13:30.197Z,17.57
2022-09-12T21:16:01.768Z,17.56
2022-09-12T21:18:28.653Z,17.54
2022-09-12T21:20:55.878Z,17.53
2022-09-12T21:23:23.768Z,17.49
2022-09-12T21:25:52.559Z,17.43
2022-09-12T21:28:20.158Z,17.42
2022-09-12T21:30:50.623Z,17.40
2022-09-12T21:33:19.079Z,17.38
2022-09-12T21:35:47.291Z,17.39
2022-09-12T21:38:18.554Z,17.42
2022-09-12T21:40:45.787Z,17.41
2022-09-12T21:43:13.083Z,17.42
2022-09-12T21:45:40.475Z,17.42
2022-09-12T21:48:07.746Z,17.37
2022-09-12T21:50:34.563Z,17.33
2022-09-12T21:53:01.301Z,17.32
2022-09-12T21:55:27.948Z,17.31
2022-09-12T21:57:55.299Z,17.25
2022-09-12T22:00:22.758Z,17.21
2022-09-12T22:02:49.868Z,17.17
2022-09-12T22:05:17.182Z,17.10
2022-09-12T22:07:43.868Z,17.01
2022-09-12T22:10:10.881Z,16.98
2022-09-12T22:12:37.551Z,16.92
2022-09-12T22:15:22.875Z,16.89
2022-09-12T22:17:51.213Z,16.84
2022-09-12T22:20:17.883Z,16.77
2022-09-12T22:23:03.057Z,16.73
2022-09-12T22:25:29.669Z,16.68
2022-09-12T22:27:56.311Z,16.63
2022-09-12T22:30:23.428Z,16.60
2022-09-12T22:32:51.124Z,16.60
2022-09-12T22:35:18.419Z,16.60
2022-09-12T22:37:46.577Z,16.58
2022-09-12T22:40:13.218Z,16.54
2022-09-12T22:42:39.745Z,16.47
2022-09-12T22:45:07.641Z,16.42
2022-09-12T22:47:34.110Z,16.36
2022-09-12T22:50:00.632Z,16.34
2022-09-12T22:52:27.146Z,16.33
2022-09-12T22:54:53.747Z,16.33
2022-09-12T22:57:20.194Z,16.32
2022-09-12T22:59:46.737Z,16.33
2022-09-12T23:02:13.304Z,16.33
2022-09-12T23:04:40.005Z,16.28
2022-09-12T23:07:06.581Z,16.25
2022-09-12T23:09:35.398Z,16.22
2022-09-12T23:12:02.444Z,16.22
2022-09-12T23:14:28.916Z,16.20
2022-09-12T23:16:55.563Z,16.16
2022-09-12T23:19:22.115Z,16.10
2022-09-12T23:21:48.712Z,16.05
2022-09-12T23:24:15.361Z,16.03
2022-09-12T23:26:41.877Z,16.02
2022-09-12T23:29:09.207Z,16.01
2022-09-12T23:31:36.261Z,16.00
2022-09-12T23:34:05.815Z,15.97
2022-09-12T23:36:33.426Z,15.93
2022-09-12T23:39:00.004Z,15.88
2022-09-12T23:41:26.641Z,15.83
2022-09-12T23:43:53.190Z,15.81
2022-09-12T23:46:20.620Z,15.79
2022-09-12T23:48:48.095Z,15.76
2022-09-12T23:51:15.138Z,15.72
2022-09-12T23:53:42.010Z,15.68
2022-09-12T23:56:08.825Z,15.67
2022-09-12T23:58:35.366Z,15.63
